Walston, Pennsylvania
Current Conditions -  °F | °C
As of 11:53 AM on Saturday 25 Oct 2014 (Local Time) from KDUJ Reporting Station
Overcast Overcast  
Wind Chill: 56°   Ceiling: 2000
Heat Index: 56°   Visibility: 10mi
Dew Point: 47°   Wind: 12mph
Humidity: 72%   Direction: 260°W
Pressure: 29.86"   Gusts: 23mph
Location:  40.96°N, 78.99°W
Report Text: KDUJ 251553Z AUTO 26010G20KT 10SM BKN020 OVC028 13/08 A2986 RMK AO2 SLP111 T01330083 $
Loading
Personal Weather Stations






























Interactive Weather Map
Tropical Storm Tracking
New forecast layout! Learn more

10-Day Weather Forecast

Advertisements
Track Severe Weather on mobile